• Join FlightAware (Why Join?)
  • Login
  • US Flag 
02:23AM EDT


 

Airport Tracker/Info


-or-


 

Live Flight TrackerFlight Track Log ✈ UAL4202 ✈ 11-Apr-2013 ✈ KSTL - KEWR

Flight Track Log - Related Links

Times and Time Zones

All times are in EDT time to prevent confusion due to time zone crossing. See the UAL4202 flight status page for this flight to view local times or setup timezone preferences in your user account.

Time Position Orientation Groundspeed Altitude Reporting Facility
EDT Latitude Longitude Course Direction KTS MPH feet Rate Location/Type
09:06PM 38.7786 -90.3719 342° North 163 188 2,500  Level FAA TRACON SMA TRACON (SMA)
09:06PM 38.7936 -90.3761 348° North 176 203 3,000 1,500 Climbing FAA TRACON SMA TRACON (SMA)
09:07PM 38.8103 -90.3811 347° North 194 223 3,500 1,740 Climbing FAA TRACON SMA TRACON (SMA)
09:07PM 38.8339 -90.3808 North 218 251 4,200 1,920 Climbing FAA TRACON SMA TRACON (SMA)
09:07PM 38.8542 -90.3778 North 234 269 4,800 2,460 Climbing FAA TRACON SMA TRACON (SMA)
09:08PM 38.7559 -89.9520 87° East  Level FlightAware Approximate
09:08PM 38.8794 -90.3736 North 241 277 5,800  Level FAA TRACON SMA TRACON (SMA)
09:08PM 38.9008 -90.3711 North 246 283 6,100 1,020 Climbing FAA TRACON SMA TRACON (SMA)
09:08PM 38.9242 -90.3681 North 264 304 6,500 1,320 Climbing FAA TRACON SMA TRACON (SMA)
09:09PM 38.7612 -89.8136 87° East  Level FlightAware Approximate
09:09PM 38.9453 -90.3533 28° Northeast 288 331 7,000  Level FAA TRACON SMA TRACON (SMA)
09:09PM 38.9586 -90.3164 65° Northeast 305 351 7,900 2,580 Climbing FAA TRACON SMA TRACON (SMA)
09:09PM 38.9586 -90.2847 90° East 300 345 8,700 1,800 Climbing FAA TRACON SMA TRACON (SMA)
09:10PM 38.7664 -89.6751 87° East  Level FlightAware Approximate
09:10PM 38.9528 -90.2536 104° East 293 337 9,100  Level FAA TRACON SMA TRACON (SMA)
09:10PM 38.9444 -90.2128 105° East 302 348 9,800 1,620 Climbing FAA TRACON SMA TRACON (SMA)
09:10PM 38.9369 -90.1797 106° East 310 357 10,200 900 Climbing FAA TRACON SMA TRACON (SMA)
09:11PM 38.7842 -89.5385 84° East  Level FlightAware Approximate
09:11PM 38.9294 -90.1453 106° East 320 368 10,400  Level FAA TRACON SMA TRACON (SMA)
09:11PM 38.9189 -90.0997 107° East 340 391 10,700 600 Climbing FAA TRACON SMA TRACON (SMA)
09:11PM 38.9108 -90.0619 105° East 352 405 10,800 540 Climbing FAA TRACON SMA TRACON (SMA)
09:12PM 38.9014 -90.0233 107° East 364 419 11,100 840 Climbing FAA TRACON SMA TRACON (SMA)
09:12PM 38.8914 -89.9739 105° East 372 428 11,400 1,020 Climbing FAA TRACON SMA TRACON (SMA)
09:12PM 38.8817 -89.9339 107° East 377 434 11,800 1,020 Climbing FAA TRACON SMA TRACON (SMA)
09:13PM 38.8731 -89.8933 105° East 382 440 12,100 1,020 Climbing FAA TRACON SMA TRACON (SMA)
09:13PM 38.8614 -89.8422 106° East 387 445 12,500 840 Climbing FAA TRACON SMA TRACON (SMA)
09:13PM 38.8519 -89.8011 106° East 391 450 12,700 660 Climbing FAA TRACON SMA TRACON (SMA)
09:14PM 38.8428 -89.7594 106° East 394 453 13,000 960 Climbing FAA TRACON SMA TRACON (SMA)
09:14PM 38.8311 -89.7072 106° East 398 458 13,400 1,320 Climbing FAA TRACON SMA TRACON (SMA)
09:14PM 38.8228 -89.6656 104° East 395 455 13,800 1,440 Climbing FAA TRACON SMA TRACON (SMA)
09:15PM 38.8136 -89.6236 106° East 395 455 14,300 1,440 Climbing FAA TRACON SMA TRACON (SMA)
09:15PM 38.8017 -89.5725 107° East 392 451 14,800 1,260 Climbing FAA TRACON SMA TRACON (SMA)
09:15PM 38.7922 -89.5311 106° East 391 450 15,200 1,020 Climbing FAA TRACON SMA TRACON (SMA)
09:16PM 38.7886 -89.4883 96° East 392 451 15,500 1,020 Climbing FAA TRACON SMA TRACON (SMA)
09:16PM 38.7925 -89.4333 85° East 403 464 15,900 1,080 Climbing FAA TRACON SMA TRACON (SMA)
09:16PM 38.7983 -89.3894 80° East 408 470 16,200 720 Climbing FAA TRACON SMA TRACON (SMA)
09:17PM 38.8033 -89.3447 82° East 411 473 16,400 720 Climbing FAA TRACON SMA TRACON (SMA)
09:17PM 38.8131 -89.2886 77° East 417 480 16,700 900 Climbing FAA TRACON SMA TRACON (SMA)
09:17PM 38.8175 -89.2431 83° East 418 481 17,000 720 Climbing FAA TRACON SMA TRACON (SMA)
09:18PM 38.8244 -89.1978 79° East 420 483 17,200 840 Climbing FAA TRACON SMA TRACON (SMA)
09:18PM 38.8328 -89.1400 79° East 427 491 17,600 1,020 Climbing FAA TRACON SMA TRACON (SMA)
09:18PM 38.8392 -89.0944 80° East 425 489 17,900 900 Climbing FAA TRACON SMA TRACON (SMA)
09:19PM 38.8425 -89.0714 79° East 426 490 18,200 420 Climbing FAA TRACON SMA TRACON (SMA)
09:19PM 38.8425 -89.0714 90° East 426 490 18,200 1,080 Level FAA TRACON SMA TRACON (SMA)
09:20PM 38.8575 -88.9892 77° East 430 495 19,100 1,200 Climbing Kansas City Center
09:21PM 38.8781 -88.8544 79° East 433 498 20,000 900 Climbing Kansas City Center
09:22PM 38.8956 -88.6983 82° East 439 505 21,000 1,200 Climbing Kansas City Center
09:23PM 38.9186 -88.5139 81° East 446 513 22,600 1,380 Climbing Kansas City Center
09:24PM 38.9553 -88.3583 73° East 446 513 23,900 1,140 Climbing Kansas City Center
09:24PM 38.9803 -88.2661 71° East 460 529 24,600 1,080 Climbing Indianapolis Center
09:25PM 39.0231 -88.1111 70° East 460 529 25,800 1,200 Climbing Indianapolis Center
09:26PM 39.0661 -87.9575 70° East 457 526 27,100 1,560 Climbing Indianapolis Center
09:27PM 39.1167 -87.7778 70° East 447 514 29,000 1,260 Climbing Indianapolis Center
09:28PM 39.1550 -87.6319 71° East 434 499 29,800 480 Climbing Indianapolis Center
09:29PM 39.1978 -87.4792 70° East 446 513 30,000 60 Climbing Indianapolis Center
09:30PM 39.2408 -87.3172 71° East 470 541 30,000  Level Indianapolis Center
09:31PM 39.2858 -87.1506 71° East 485 558 30,000  Level Indianapolis Center
09:32PM 39.3314 -86.9831 71° East 489 563 30,000  Level Indianapolis Center
09:34PM 39.3742 -86.8183 71° East 483 556 30,100 480 Climbing Indianapolis Center
09:35PM 39.4175 -86.6544 71° East 481 554 31,000 420 Climbing Indianapolis Center
09:36PM 39.4717 -86.4928 66° East 493 567 31,000  Level Indianapolis Center
09:37PM 39.5544 -86.3383 55° Northeast 518 596 31,000  Level Indianapolis Center
09:38PM 39.6400 -86.1850 54° Northeast 521 600 31,000  Level Indianapolis Center
09:39PM 39.7233 -86.0344 54° Northeast 514 592 31,000  Level Indianapolis Center
09:40PM 39.8139 -85.8625 56° Northeast 512 589 31,000 -60 Level Indianapolis Center
09:41PM 39.8769 -85.7008 63° Northeast 500 575 30,900  Descending Indianapolis Center
09:42PM 39.9428 -85.5389 62° Northeast 501 577 31,000  Climbing Indianapolis Center
09:43PM 40.0083 -85.3778 62° Northeast 499 574 31,000 -60 Level Indianapolis Center
09:44PM 40.0744 -85.2164 62° Northeast 499 574 30,900 -60 Descending Indianapolis Center
09:45PM 40.1389 -85.0547 62° Northeast 498 573 30,900  Level Indianapolis Center
09:46PM 40.2047 -84.8922 62° Northeast 500 575 31,000  Climbing Indianapolis Center
09:47PM 40.2697 -84.7294 62° Northeast 501 577 31,000  Level Indianapolis Center
09:48PM 40.3353 -84.5639 63° Northeast 506 582 31,000  Level Indianapolis Center
09:49PM 40.4006 -84.3981 63° Northeast 506 582 31,000  Level Indianapolis Center
09:50PM 40.4761 -84.2036 63° Northeast 506 582 31,000  Level Indianapolis Center
09:51PM 40.5406 -84.0361 63° Northeast 507 583 31,000  Level Indianapolis Center
09:52PM 40.6047 -83.8692 63° Northeast 506 582 31,000  Level Indianapolis Center
09:53PM 40.6689 -83.7022 63° Northeast 504 580 31,000  Level Indianapolis Center
09:54PM 40.7317 -83.5367 63° Northeast 501 577 31,000  Level Indianapolis Center
09:54PM 40.7467 -83.5047 58° Northeast 513 590 31,000  Level Cleveland Center
09:55PM 40.7908 -83.3311 71° East 493 567 31,000  Level Cleveland Center
09:56PM 40.8178 -83.1539 79° East 488 562 31,000  Level Cleveland Center
09:57PM 40.8450 -82.9575 80° East 488 562 31,000  Level Cleveland Center
09:58PM 40.8736 -82.7828 78° East 488 562 31,000  Level Cleveland Center
09:59PM 40.9019 -82.6022 78° East 488 562 31,000  Level Cleveland Center
10:00PM 40.9300 -82.4217 78° East 488 562 31,000  Level Cleveland Center
10:01PM 40.9578 -82.2439 78° East 488 562 31,000  Level Cleveland Center
10:02PM 40.9831 -82.0656 79° East 488 562 31,000  Level Cleveland Center
10:03PM 41.0103 -81.8819 79° East 494 568 31,000  Level Cleveland Center
10:04PM 41.0353 -81.7008 80° East 499 574 31,000  Level Cleveland Center
10:05PM 41.0619 -81.5194 79° East 506 582 31,000  Level Cleveland Center
10:06PM 41.0883 -81.3381 79° East 506 582 31,000  Level Cleveland Center
10:07PM 41.1142 -81.1508 80° East 506 582 31,000  Level Cleveland Center
10:08PM 41.1400 -80.9692 79° East 506 582 31,000  Level Cleveland Center
10:09PM 41.1656 -80.7900 79° East 506 582 31,000  Level Cleveland Center
10:10PM 41.1908 -80.6025 80° East 506 582 31,000  Level Cleveland Center
10:11PM 41.2156 -80.4231 80° East 501 577 31,000  Level Cleveland Center
10:12PM 41.2361 -80.2572 81° East 501 577 31,000  Level Cleveland Center
10:13PM 41.2606 -80.0750 80° East 501 577 31,000  Level Cleveland Center
10:14PM 41.2844 -79.8814 81° East 501 577 31,000  Level Cleveland Center
10:15PM 41.3083 -79.6986 80° East 501 577 31,000  Level Cleveland Center
10:16PM 41.3297 -79.5297 80° East 506 582 31,000  Level Cleveland Center
10:17PM 41.3531 -79.3467 80° East 506 582 31,000  Level Cleveland Center
10:18PM 41.3778 -79.1442 81° East 506 582 31,000  Level Cleveland Center
10:19PM 41.4003 -78.9581 81° East 506 582 31,000  Level Cleveland Center
10:20PM 41.4203 -78.7722 82° East 506 582 31,000  Level Cleveland Center
10:21PM 41.4361 -78.5889 83° East 506 582 31,000  Level Cleveland Center
10:22PM 41.4286 -78.4036 93° East 501 577 31,000  Level Cleveland Center
10:23PM 41.4247 -78.3275 94° East 498 573 31,000  Level New York Center
10:24PM 41.4156 -78.1411 94° East 503 579 31,000  Level New York Center
10:25PM 41.4042 -77.9544 95° East 503 579 31,000  Level New York Center
10:26PM 41.3964 -77.7711 93° East 503 579 31,000  Level New York Center
10:27PM 41.3842 -77.5844 95° East 503 579 31,000  Level New York Center
10:28PM 41.3761 -77.3983 93° East 503 579 31,000  Level New York Center
10:29PM 41.3653 -77.2147 94° East 503 579 31,000  Level New York Center
10:30PM 41.3519 -77.0339 96° East 503 579 31,000 -360 Level New York Center
10:31PM 41.3425 -76.8558 94° East 498 573 30,300 -1,320 Descending New York Center
10:32PM 41.3094 -76.6844 104° East 486 559 28,400 -2,160 Descending New York Center
10:33PM 41.2656 -76.5206 110° East 480 552 26,000 -2,460 Descending New York Center
10:34PM 41.2233 -76.3569 109° East 468 539 23,500 -2,580 Descending New York Center
10:35PM 41.1828 -76.2019 109° East 454 522 21,000 -2,340 Descending New York Center
10:36PM 41.1381 -76.0386 110° East 432 497 19,000 -1,740 Descending New York Center
10:37PM 41.1022 -75.9008 109° East 406 467 17,600 -1,620 Descending New York Center
10:38PM 41.0644 -75.7658 110° East 396 456 15,700 -1,920 Descending New York Center
10:39PM 41.0281 -75.6394 111° Southeast 396 456 13,800 -1,380 Descending New York Center
10:40PM 40.9933 -75.5158 110° East 378 435 13,000 -420 Descending New York Center
10:41PM 40.9589 -75.3872 109° East 347 399 13,000 -900 Level New York Center
10:42PM 40.9294 -75.2836 111° Southeast 336 387 11,200 -1,680 Descending New York Center
10:43PM 40.8983 -75.1744 111° Southeast 321 369 9,700 -1,560 Descending New York Center
10:44PM 40.8669 -75.0625 110° East 297 342 8,200 -1,380 Descending New York Center
10:45PM 40.8392 -74.9675 111° Southeast 292 336 7,000 -780 Descending New York Center
10:46PM 40.8114 -74.8672 110° East 286 329 6,700 -600 Descending New York Center
10:47PM 40.7850 -74.7889 114° Southeast 270 311 5,900 -900 Descending New York Center
10:48PM 40.7375 -74.7122 129° Southeast 251 289 5,000 -480 Descending New York Center
10:49PM 40.7044 -74.6444 123° Southeast 240 276 5,000  Level New York Center
10:49PM 40.6833 -74.6000 122° Southeast 254 292 5,000  Level New York TRACON
10:50PM 40.6333 -74.5167 128° Southeast 246 283 5,000 -420 Level New York TRACON
10:51PM 40.6000 -74.4500 123° Southeast 232 267 4,200 -540 Descending New York TRACON
10:52PM 40.5500 -74.4167 153° Southeast 214 246 4,000 -120 Descending New York TRACON
10:53PM 40.5000 -74.3833 153° Southeast 203 234 4,000  Level New York TRACON
10:54PM 40.5000 -74.3333 90° East 174 200 4,000 -420 Level New York TRACON
10:55PM 40.5333 -74.2667 57° Northeast 177 204 3,200 -720 Descending New York TRACON
10:56PM 40.5667 -74.2500 21° North 177 204 2,500 -780 Descending New York TRACON